Terminal Aerodrome Forecast
Issued by NWS

Home | Current Version | Previous Version | Text Only | Print | Product List | Glossary On
Versions: 1 2 3 4 5 6 7 8 9
000
FTUS42 KGSP 280537
TAFGMU
TAF
KGMU 280537Z 2806/2906 24004KT P6SM BKN090 OVC200
     FM280800 22004KT P6SM -RA OVC090
     FM281100 23003KT P6SM -RA OVC013
     FM281400 22004KT P6SM -RA OVC007
     FM282000 23006KT P6SM -RA OVC013
     FM282300 30004KT P6SM -RA OVC024=

USA.gov is the U.S. government's official web portal to all federal, state and local government web resources and services.